sensor_id;sensor_type;location;lat;lon;timestamp;temperature;humidity
27870;DHT22;15225;50.730;4.244;2023-12-14T06:49:13;6.70;84.10
27870;DHT22;15225;50.730;4.244;2023-12-14T06:51:39;6.70;89.90
27870;DHT22;15225;50.730;4.244;2023-12-14T06:54:04;7.10;90.00
27870;DHT22;15225;50.730;4.244;2023-12-14T06:56:30;7.50;81.20
27870;DHT22;15225;50.730;4.244;2023-12-14T06:58:56;7.80;61.10
27870;DHT22;15225;50.730;4.244;2023-12-14T07:01:22;8.10;47.40
27870;DHT22;15225;50.730;4.244;2023-12-14T07:03:47;8.60;30.40
27870;DHT22;15225;50.730;4.244;2023-12-14T07:06:14;8.90;8.60
27870;DHT22;15225;50.730;4.244;2023-12-14T07:08:40;9.00;1.00
27870;DHT22;15225;50.730;4.244;2023-12-14T07:11:07;9.20;1.00
27870;DHT22;15225;50.730;4.244;2023-12-14T07:13:33;9.40;1.00
27870;DHT22;15225;50.730;4.244;2023-12-14T07:15:59;9.60;1.00
27870;DHT22;15225;50.730;4.244;2023-12-14T07:18:25;9.60;1.00
27870;DHT22;15225;50.730;4.244;2023-12-14T07:20:50;9.60;1.00
27870;DHT22;15225;50.730;4.244;2023-12-14T07:23:16;9.60;1.00
27870;DHT22;15225;50.730;4.244;2023-12-14T07:25:42;9.70;1.00
27870;DHT22;15225;50.730;4.244;2023-12-14T07:28:07;9.60;1.00
27870;DHT22;15225;50.730;4.244;2023-12-14T07:30:34;9.70;1.00
27870;DHT22;15225;50.730;4.244;2023-12-14T07:33:00;9.70;1.00
27870;DHT22;15225;50.730;4.244;2023-12-14T07:35:25;9.70;1.00
27870;DHT22;15225;50.730;4.244;2023-12-14T07:37:51;9.50;1.00
27870;DHT22;15225;50.730;4.244;2023-12-14T07:40:17;9.50;1.00
27870;DHT22;15225;50.730;4.244;2023-12-14T07:42:42;9.60;1.00
27870;DHT22;15225;50.730;4.244;2023-12-14T07:45:08;9.60;1.00
27870;DHT22;15225;50.730;4.244;2023-12-14T07:47:35;9.70;1.00
27870;DHT22;15225;50.730;4.244;2023-12-14T07:50:00;9.70;1.00
27870;DHT22;15225;50.730;4.244;2023-12-14T07:52:26;9.70;1.00
27870;DHT22;15225;50.730;4.244;2023-12-14T07:54:52;9.60;1.00
27870;DHT22;15225;50.730;4.244;2023-12-14T07:57:18;9.60;1.00
27870;DHT22;15225;50.730;4.244;2023-12-14T07:59:43;9.40;1.00
27870;DHT22;15225;50.730;4.244;2023-12-14T08:02:09;9.50;1.00
27870;DHT22;15225;50.730;4.244;2023-12-14T08:04:35;9.80;1.00
27870;DHT22;15225;50.730;4.244;2023-12-14T20:38:29;7.20;66.10
27870;DHT22;15225;50.730;4.244;2023-12-14T20:40:54;7.30;72.00
27870;DHT22;15225;50.730;4.244;2023-12-14T20:43:20;7.60;69.20
27870;DHT22;15225;50.730;4.244;2023-12-14T20:45:46;8.00;57.50
27870;DHT22;15225;50.730;4.244;2023-12-14T20:48:11;8.50;34.20
27870;DHT22;15225;50.730;4.244;2023-12-14T20:50:38;8.90;8.10
27870;DHT22;15225;50.730;4.244;2023-12-14T20:53:04;9.30;1.00
27870;DHT22;15225;50.730;4.244;2023-12-14T20:55:29;9.60;1.00
27870;DHT22;15225;50.730;4.244;2023-12-14T20:57:55;9.70;1.00
27870;DHT22;15225;50.730;4.244;2023-12-14T21:00:21;9.80;1.00
27870;DHT22;15225;50.730;4.244;2023-12-14T21:02:47;9.90;1.00
27870;DHT22;15225;50.730;4.244;2023-12-14T21:05:13;10.10;1.00
27870;DHT22;15225;50.730;4.244;2023-12-14T21:07:39;10.10;1.00
27870;DHT22;15225;50.730;4.244;2023-12-14T21:10:05;10.00;1.00
27870;DHT22;15225;50.730;4.244;2023-12-14T21:12:30;10.00;1.00
27870;DHT22;15225;50.730;4.244;2023-12-14T21:14:56;10.10;1.00
27870;DHT22;15225;50.730;4.244;2023-12-14T21:17:22;10.20;1.00
27870;DHT22;15225;50.730;4.244;2023-12-14T21:19:49;10.30;1.00
27870;DHT22;15225;50.730;4.244;2023-12-14T21:22:15;10.10;1.00
27870;DHT22;15225;50.730;4.244;2023-12-14T21:24:41;10.00;1.00
27870;DHT22;15225;50.730;4.244;2023-12-14T21:27:07;10.10;1.00
27870;DHT22;15225;50.730;4.244;2023-12-14T21:29:52;10.10;1.00
27870;DHT22;15225;50.730;4.244;2023-12-14T21:32:17;9.90;1.00
27870;DHT22;15225;50.730;4.244;2023-12-14T21:34:43;10.00;1.00
27870;DHT22;15225;50.730;4.244;2023-12-14T21:37:08;10.10;1.00
27870;DHT22;15225;50.730;4.244;2023-12-14T21:39:34;10.10;1.00
27870;DHT22;15225;50.730;4.244;2023-12-14T21:42:00;10.10;1.00
27870;DHT22;15225;50.730;4.244;2023-12-14T21:44:25;10.10;1.00
27870;DHT22;15225;50.730;4.244;2023-12-14T21:46:54;10.00;1.00
27870;DHT22;15225;50.730;4.244;2023-12-14T21:49:19;10.00;1.00
27870;DHT22;15225;50.730;4.244;2023-12-14T21:51:46;10.00;1.00
27870;DHT22;15225;50.730;4.244;2023-12-14T21:54:12;9.90;1.00
27870;DHT22;15225;50.730;4.244;2023-12-14T21:56:38;9.80;1.00
27870;DHT22;15225;50.730;4.244;2023-12-14T21:59:04;9.80;1.00
27870;DHT22;15225;50.730;4.244;2023-12-14T22:01:29;9.80;1.00
27870;DHT22;15225;50.730;4.244;2023-12-14T22:03:55;9.80;1.00
27870;DHT22;15225;50.730;4.244;2023-12-14T22:06:21;9.70;1.00
27870;DHT22;15225;50.730;4.244;2023-12-14T22:08:47;9.60;1.00
27870;DHT22;15225;50.730;4.244;2023-12-14T22:11:12;9.70;1.00
27870;DHT22;15225;50.730;4.244;2023-12-14T22:13:38;9.80;1.00
27870;DHT22;15225;50.730;4.244;2023-12-14T22:16:04;9.90;1.00
27870;DHT22;15225;50.730;4.244;2023-12-14T22:18:30;10.00;1.00
